Time;durP1;ratioP1;P1;durP2;ratioP2;P2;SDS_P1;SDS_P2;PMS_P1;PMS_P2;Temp;Humidity;BMP_temperature;BMP_pressure;BME280_temperature;BME280_humidity;BME280_pressure;Samples;Min_cycle;Max_cycle;Signal;HPM_P1;HPM_P2
2023/12/17 00:00:13;;;;;;;13.30;7.00;;;10.50;99.90;;;;;;5106843;27;20108;-65
2023/12/17 00:02:39;;;;;;;13.38;6.97;;;10.40;99.90;;;;;;5106430;27;20458;-65
2023/12/17 00:05:05;;;;;;;8.02;5.57;;;10.70;99.90;;;;;;5096983;27;20871;-65
2023/12/17 00:07:31;;;;;;;13.80;6.57;;;10.40;99.90;;;;;;5092786;27;20116;-65
2023/12/17 00:09:57;;;;;;;11.95;7.07;;;10.70;99.90;;;;;;5092823;27;20124;-65
2023/12/17 00:12:22;;;;;;;13.60;7.82;;;10.40;99.90;;;;;;5092680;27;20501;-65
2023/12/17 00:14:48;;;;;;;12.25;7.10;;;10.70;99.90;;;;;;5091911;27;20194;-65
2023/12/17 00:17:14;;;;;;;13.45;7.70;;;10.70;99.90;;;;;;5093032;28;20343;-65
2023/12/17 00:19:39;;;;;;;11.43;7.00;;;10.70;99.90;;;;;;5093126;27;20035;-65
2023/12/17 00:22:05;;;;;;;13.77;7.97;;;10.60;99.90;;;;;;5074840;27;20624;-64
2023/12/17 00:24:31;;;;;;;10.80;6.65;;;10.40;99.90;;;;;;5091864;27;20035;-65
2023/12/17 00:26:57;;;;;;;15.75;7.85;;;10.50;99.90;;;;;;5074538;27;20492;-64
2023/12/17 00:29:23;;;;;;;13.13;7.15;;;10.60;99.90;;;;;;5092412;28;20576;-65
2023/12/17 00:31:49;;;;;;;12.27;8.10;;;10.50;99.90;;;;;;5093145;27;20035;-64
2023/12/17 00:34:15;;;;;;;12.32;7.47;;;10.40;99.90;;;;;;5075420;28;20036;-66
2023/12/17 00:36:40;;;;;;;12.15;7.75;;;10.30;99.90;;;;;;5058094;28;20035;-65
2023/12/17 00:39:07;;;;;;;15.40;7.95;;;10.50;99.90;;;;;;5091176;27;20342;-65
2023/12/17 00:41:33;;;;;;;14.30;7.82;;;10.70;99.90;;;;;;5074518;28;20071;-65
2023/12/17 00:43:59;;;;;;;14.82;7.90;;;10.50;99.90;;;;;;5091664;27;20077;-65
2023/12/17 00:46:25;;;;;;;15.30;8.32;;;10.30;99.90;;;;;;5092415;27;20032;-65
2023/12/17 00:48:51;;;;;;;14.57;7.88;;;10.50;99.90;;;;;;5092115;27;20043;-65
2023/12/17 00:51:18;;;;;;;14.18;8.32;;;10.60;99.90;;;;;;5092130;27;20075;-65
2023/12/17 00:53:43;;;;;;;13.25;7.72;;;10.40;99.90;;;;;;5091180;27;20047;-66
2023/12/17 00:56:10;;;;;;;16.20;8.00;;;10.30;99.90;;;;;;5093809;27;20109;-65
2023/12/17 00:58:36;;;;;;;11.70;7.60;;;10.40;99.90;;;;;;5094181;27;20428;-65
2023/12/17 01:01:02;;;;;;;15.35;8.40;;;10.60;99.90;;;;;;5097679;27;20047;-65
2023/12/17 01:03:28;;;;;;;14.50;7.43;;;10.50;99.90;;;;;;5099896;27;20055;-65
2023/12/17 01:05:54;;;;;;;15.77;7.55;;;10.60;99.90;;;;;;5092536;27;20470;-65
2023/12/17 01:08:19;;;;;;;14.48;8.43;;;10.40;99.90;;;;;;5093975;27;20341;-65
2023/12/17 01:10:45;;;;;;;14.48;7.68;;;10.50;99.90;;;;;;5095742;27;21214;-65
2023/12/17 01:13:11;;;;;;;11.63;7.00;;;10.40;99.90;;;;;;5095155;27;20118;-65
2023/12/17 01:15:37;;;;;;;16.20;8.43;;;10.40;99.90;;;;;;5079664;27;20434;-65
2023/12/17 01:18:03;;;;;;;10.35;7.22;;;10.70;99.90;;;;;;5093060;27;20519;-65
2023/12/17 01:20:28;;;;;;;12.77;6.85;;;10.60;99.90;;;;;;5093811;27;20491;-65
2023/12/17 01:22:54;;;;;;;13.60;6.50;;;10.70;99.90;;;;;;5076025;28;20529;-65
2023/12/17 01:25:20;;;;;;;11.32;6.78;;;10.40;99.90;;;;;;5096773;27;20044;-64
2023/12/17 01:27:45;;;;;;;12.98;7.40;;;10.70;99.90;;;;;;5098363;27;20138;-65
2023/12/17 01:30:11;;;;;;;14.02;6.78;;;10.50;99.90;;;;;;5095975;27;20445;-65
2023/12/17 01:32:37;;;;;;;12.95;7.60;;;10.60;99.90;;;;;;5074549;28;20052;-65
2023/12/17 01:35:04;;;;;;;13.38;7.47;;;10.40;99.90;;;;;;5091408;27;20062;-65
2023/12/17 01:37:31;;;;;;;17.25;8.25;;;10.50;99.90;;;;;;5094702;27;20051;-65
2023/12/17 01:39:58;;;;;;;12.90;6.65;;;10.70;99.90;;;;;;5099865;27;20261;-65
2023/12/17 01:42:23;;;;;;;13.65;6.53;;;10.50;99.90;;;;;;5098141;27;20039;-65
2023/12/17 01:44:49;;;;;;;12.80;7.57;;;10.70;99.90;;;;;;5092386;27;20104;-65
2023/12/17 01:47:15;;;;;;;10.40;7.25;;;10.50;99.90;;;;;;5100121;27;20390;-66
2023/12/17 01:49:41;;;;;;;13.30;7.38;;;10.70;99.90;;;;;;5095547;27;20039;-65
2023/12/17 01:52:07;;;;;;;15.07;7.45;;;10.60;99.90;;;;;;5095017;27;20043;-65
2023/12/17 01:54:33;;;;;;;12.70;6.68;;;10.70;99.90;;;;;;5073056;27;20090;-65
2023/12/17 01:56:58;;;;;;;11.35;5.50;;;10.60;99.90;;;;;;5074243;28;20396;-65
2023/12/17 01:59:24;;;;;;;11.88;7.35;;;10.60;99.90;;;;;;5090053;27;20062;-65
2023/12/17 02:01:52;;;;;;;13.73;7.18;;;10.70;99.90;;;;;;5074186;28;20139;-65
2023/12/17 02:04:21;;;;;;;14.00;7.20;;;10.50;99.90;;;;;;5090554;28;20047;-64
2023/12/17 02:06:47;;;;;;;9.60;6.18;;;10.60;99.90;;;;;;5090937;27;20055;-65
2023/12/17 02:09:13;;;;;;;12.93;7.25;;;10.70;99.90;;;;;;5089796;27;20095;-65
2023/12/17 02:11:38;;;;;;;13.02;6.47;;;10.70;99.90;;;;;;5090290;28;20063;-65
2023/12/17 02:14:04;;;;;;;11.30;6.70;;;10.50;99.90;;;;;;5090197;27;20349;-65
2023/12/17 02:16:30;;;;;;;14.18;6.80;;;10.50;99.90;;;;;;5073116;28;20047;-65
2023/12/17 02:18:58;;;;;;;11.18;6.20;;;10.50;99.90;;;;;;5074162;28;20105;-64
2023/12/17 02:21:24;;;;;;;12.40;6.95;;;10.70;99.90;;;;;;5090683;27;20035;-64
2023/12/17 02:23:50;;;;;;;12.27;6.93;;;10.70;99.90;;;;;;5090146;28;20186;-65
2023/12/17 02:26:17;;;;;;;10.27;5.82;;;10.50;99.90;;;;;;5089980;27;20035;-65
2023/12/17 02:28:43;;;;;;;12.50;7.05;;;10.80;99.90;;;;;;5073125;28;20039;-65
2023/12/17 02:31:09;;;;;;;12.85;7.20;;;10.80;99.90;;;;;;5092414;27;20087;-65
2023/12/17 02:33:34;;;;;;;12.27;6.28;;;10.70;99.90;;;;;;5090736;28;20519;-64
2023/12/17 02:36:00;;;;;;;13.73;6.25;;;10.70;99.90;;;;;;5089888;28;20032;-65
2023/12/17 02:38:26;;;;;;;12.38;6.40;;;10.60;99.90;;;;;;5092140;27;20106;-65
2023/12/17 02:40:51;;;;;;;9.70;6.35;;;10.80;99.90;;;;;;5090690;28;20065;-65
2023/12/17 02:43:17;;;;;;;10.48;5.82;;;10.70;99.90;;;;;;5091168;28;20042;-65
2023/12/17 02:45:43;;;;;;;13.85;5.82;;;10.70;99.90;;;;;;5090187;28;20554;-64
2023/12/17 02:48:08;;;;;;;12.55;7.07;;;10.60;99.90;;;;;;5073153;28;20152;-65
2023/12/17 02:50:34;;;;;;;10.75;6.10;;;10.80;99.90;;;;;;5090377;28;20089;-65
2023/12/17 02:53:00;;;;;;;10.27;5.32;;;10.50;99.90;;;;;;5090003;28;20050;-65
2023/12/17 02:55:25;;;;;;;10.55;6.18;;;10.80;99.90;;;;;;5075625;28;20052;-65
2023/12/17 02:57:51;;;;;;;9.05;5.75;;;10.80;99.90;;;;;;5090012;28;20036;-67
2023/12/17 03:00:17;;;;;;;12.30;6.57;;;10.70;99.90;;;;;;5090181;28;20042;-65
2023/12/17 03:02:42;;;;;;;13.13;5.80;;;10.70;99.90;;;;;;5090582;28;20268;-65
2023/12/17 03:05:10;;;;;;;8.20;5.45;;;10.80;99.90;;;;;;5090259;28;20051;-65
2023/12/17 03:07:35;;;;;;;11.85;5.90;;;10.80;99.90;;;;;;5089320;28;20050;-65
2023/12/17 03:10:02;;;;;;;6.68;4.63;;;10.50;99.90;;;;;;5071980;28;20645;-65
2023/12/17 03:12:28;;;;;;;14.43;6.13;;;10.60;99.90;;;;;;5090043;28;20263;-65
2023/12/17 03:14:53;;;;;;;11.45;6.35;;;10.60;99.90;;;;;;5089364;28;20357;-65
2023/12/17 03:17:19;;;;;;;11.05;5.80;;;10.70;99.90;;;;;;5072308;28;20040;-65
2023/12/17 03:19:45;;;;;;;9.90;5.88;;;10.60;99.90;;;;;;5072965;28;20114;-65
2023/12/17 03:22:10;;;;;;;11.25;6.10;;;10.80;99.90;;;;;;5075176;28;20420;-65
2023/12/17 03:24:37;;;;;;;9.77;5.82;;;10.70;99.90;;;;;;5090261;28;20396;-65
2023/12/17 03:27:03;;;;;;;11.63;6.38;;;10.60;99.90;;;;;;5089317;28;20273;-65
2023/12/17 03:29:29;;;;;;;9.77;5.82;;;10.80;99.90;;;;;;5089669;28;20079;-65
2023/12/17 03:31:55;;;;;;;8.07;5.38;;;10.70;99.90;;;;;;5091679;28;20039;-65
2023/12/17 03:34:20;;;;;;;9.07;5.18;;;10.70;99.90;;;;;;5072482;28;20062;-65
2023/12/17 03:36:46;;;;;;;11.63;5.82;;;10.60;99.90;;;;;;5056170;28;20131;-65
2023/12/17 03:39:13;;;;;;;8.45;4.80;;;10.60;99.90;;;;;;5091538;28;20335;-65
2023/12/17 03:41:38;;;;;;;11.15;5.70;;;10.80;99.90;;;;;;5076196;28;20335;-65
2023/12/17 03:44:04;;;;;;;10.00;4.72;;;10.80;99.90;;;;;;5093813;27;20601;-65
2023/12/17 03:46:30;;;;;;;8.90;5.03;;;10.60;99.90;;;;;;5093489;27;20316;-65
2023/12/17 03:48:55;;;;;;;9.35;5.18;;;10.80;99.90;;;;;;5095300;27;20051;-65
2023/12/17 03:51:21;;;;;;;11.35;5.68;;;10.80;99.90;;;;;;5058534;28;20032;-64
2023/12/17 03:53:47;;;;;;;10.43;5.38;;;10.70;99.90;;;;;;5098521;27;20426;-65
2023/12/17 03:56:15;;;;;;;8.13;5.10;;;10.60;99.90;;;;;;5081521;27;20060;-65
2023/12/17 03:58:42;;;;;;;10.68;4.88;;;10.60;99.90;;;;;;5095424;27;20058;-65
2023/12/17 04:01:08;;;;;;;10.00;5.30;;;10.70;99.90;;;;;;5095193;27;20395;-65
2023/12/17 04:03:34;;;;;;;7.90;5.50;;;10.60;99.90;;;;;;5096940;27;20547;-65
2023/12/17 04:06:02;;;;;;;10.85;5.07;;;10.50;99.90;;;;;;5079084;27;20035;-65
2023/12/17 04:08:28;;;;;;;13.80;5.07;;;10.70;99.90;;;;;;5081762;28;20479;-65
2023/12/17 04:10:53;;;;;;;10.75;4.97;;;10.80;99.90;;;;;;5094501;27;20027;-65
2023/12/17 04:13:19;;;;;;;11.25;5.38;;;10.60;99.90;;;;;;5099562;27;20036;-65
2023/12/17 04:15:45;;;;;;;10.52;5.10;;;10.50;99.90;;;;;;5078241;27;20502;-65
2023/12/17 04:18:11;;;;;;;12.27;4.60;;;10.80;99.90;;;;;;5084263;27;20047;-65
2023/12/17 04:20:37;;;;;;;9.43;4.18;;;10.60;99.90;;;;;;5095058;27;20604;-65
2023/12/17 04:23:04;;;;;;;9.75;5.38;;;10.60;99.90;;;;;;5093745;27;20046;-65
2023/12/17 04:25:29;;;;;;;11.25;4.22;;;10.70;99.90;;;;;;5101382;27;20043;-65
2023/12/17 04:27:55;;;;;;;13.32;4.95;;;10.60;99.90;;;;;;5094670;27;20031;-65
2023/12/17 04:30:21;;;;;;;7.78;4.72;;;10.80;99.90;;;;;;5097484;27;20054;-65
2023/12/17 04:32:48;;;;;;;11.65;5.32;;;10.60;99.90;;;;;;5080722;27;20338;-65
2023/12/17 04:35:14;;;;;;;13.35;5.03;;;10.50;99.90;;;;;;5093776;27;20043;-65
2023/12/17 04:37:40;;;;;;;10.18;5.13;;;10.60;99.90;;;;;;5098050;27;20024;-65
2023/12/17 04:40:06;;;;;;;9.55;4.45;;;10.70;99.90;;;;;;5077445;27;20043;-65
2023/12/17 04:42:32;;;;;;;10.32;4.88;;;10.60;99.90;;;;;;5099099;27;20039;-65
2023/12/17 04:44:57;;;;;;;8.00;5.20;;;10.60;99.90;;;;;;5102788;27;20327;-65
2023/12/17 04:47:23;;;;;;;7.78;4.60;;;10.70;99.90;;;;;;5082053;27;20112;-65
2023/12/17 04:49:49;;;;;;;9.45;5.13;;;10.60;99.90;;;;;;5082183;27;20035;-65
2023/12/17 04:52:15;;;;;;;9.80;4.72;;;10.70;99.90;;;;;;5080065;27;20082;-65
2023/12/17 04:54:41;;;;;;;6.88;3.50;;;10.70;99.90;;;;;;5080850;27;20616;-65
2023/12/17 04:57:06;;;;;;;7.50;4.13;;;10.70;99.90;;;;;;5101438;27;20293;-65
2023/12/17 04:59:32;;;;;;;9.82;5.63;;;10.50;99.90;;;;;;5098164;27;20047;-65
2023/12/17 05:01:58;;;;;;;8.60;5.22;;;10.70;99.90;;;;;;5098080;27;20440;-65
2023/12/17 05:04:23;;;;;;;15.07;6.05;;;10.60;99.90;;;;;;5096650;27;20108;-65
2023/12/17 05:06:49;;;;;;;10.43;6.07;;;10.70;99.90;;;;;;5097494;27;20043;-65
2023/12/17 05:09:15;;;;;;;12.43;5.15;;;10.50;99.90;;;;;;5077214;27;20046;-65
2023/12/17 05:11:40;;;;;;;10.50;6.63;;;10.60;99.90;;;;;;5095906;27;20070;-65
2023/12/17 05:14:06;;;;;;;16.95;6.50;;;10.60;99.90;;;;;;5077375;27;20035;-64
2023/12/17 05:16:32;;;;;;;12.85;6.57;;;10.60;99.90;;;;;;5097758;27;20520;-65
2023/12/17 05:18:58;;;;;;;13.93;7.13;;;10.40;99.90;;;;;;5100052;27;20043;-65
2023/12/17 05:21:23;;;;;;;13.07;6.57;;;10.50;99.90;;;;;;5098210;27;20043;-65
2023/12/17 05:23:49;;;;;;;13.00;6.53;;;10.60;99.90;;;;;;5092886;27;20073;-64
2023/12/17 05:26:15;;;;;;;13.20;6.43;;;10.50;99.90;;;;;;5093549;27;20036;-65
2023/12/17 05:28:41;;;;;;;13.20;7.30;;;10.60;99.90;;;;;;5094796;27;20031;-65
2023/12/17 05:31:07;;;;;;;13.07;7.35;;;10.60;99.90;;;;;;5103570;27;20039;-64
2023/12/17 05:33:33;;;;;;;10.60;7.35;;;10.40;99.90;;;;;;5098466;27;20091;-65
2023/12/17 05:35:59;;;;;;;16.05;7.68;;;10.40;99.90;;;;;;5097238;27;20119;-64
2023/12/17 05:38:28;;;;;;;13.63;6.85;;;10.60;99.90;;;;;;5091204;27;20043;-65
2023/12/17 05:40:57;;;;;;;12.75;7.45;;;10.60;99.90;;;;;;5096771;27;20039;-65
2023/12/17 05:43:23;;;;;;;16.40;8.40;;;10.40;99.90;;;;;;5094732;27;20055;-65
2023/12/17 05:45:49;;;;;;;13.95;7.75;;;10.40;99.90;;;;;;5094814;27;20054;-65
2023/12/17 05:48:15;;;;;;;15.50;7.80;;;10.50;99.90;;;;;;5059936;27;20047;-65
2023/12/17 05:50:42;;;;;;;12.43;8.32;;;10.50;99.90;;;;;;5076370;28;20126;-65
2023/12/17 05:53:08;;;;;;;15.43;8.23;;;10.30;99.90;;;;;;5076203;27;20047;-65
2023/12/17 05:55:33;;;;;;;12.20;6.88;;;10.40;99.90;;;;;;5090560;28;21020;-65
2023/12/17 05:57:59;;;;;;;13.75;7.78;;;10.50;99.90;;;;;;5073124;28;20254;-65
2023/12/17 06:00:25;;;;;;;14.00;7.50;;;10.30;99.90;;;;;;5074230;28;20039;-65
2023/12/17 06:02:50;;;;;;;13.40;7.40;;;10.40;99.90;;;;;;5089096;28;20489;-65
2023/12/17 06:05:16;;;;;;;16.15;7.70;;;10.20;99.90;;;;;;5089518;28;20142;-65
2023/12/17 06:07:42;;;;;;;12.38;7.03;;;10.40;99.90;;;;;;5089889;27;20148;-65
2023/12/17 06:10:09;;;;;;;13.88;7.32;;;10.10;99.90;;;;;;5089986;27;20051;-65
2023/12/17 06:12:34;;;;;;;12.43;6.80;;;10.20;99.90;;;;;;5091270;27;20036;-65
2023/12/17 06:15:00;;;;;;;13.38;7.18;;;10.20;99.90;;;;;;5090811;27;20497;-65
2023/12/17 06:17:26;;;;;;;15.70;7.57;;;10.40;99.90;;;;;;5091503;27;20043;-64
2023/12/17 06:19:52;;;;;;;16.25;8.00;;;10.20;99.90;;;;;;5091255;27;20058;-65
2023/12/17 06:22:18;;;;;;;15.68;7.75;;;10.20;99.90;;;;;;5089935;27;20517;-65
2023/12/17 06:24:45;;;;;;;14.38;7.93;;;10.10;99.90;;;;;;5090167;28;20108;-65
2023/12/17 06:27:15;;;;;;;12.98;7.97;;;10.10;99.90;;;;;;5090908;27;20170;-65
2023/12/17 06:29:41;;;;;;;18.33;8.82;;;10.10;99.90;;;;;;5090629;27;20039;-64
2023/12/17 06:32:07;;;;;;;13.77;8.10;;;10.20;99.90;;;;;;5090752;28;20064;-65
2023/12/17 06:34:34;;;;;;;15.27;8.57;;;10.10;99.90;;;;;;5072842;28;20512;-65
2023/12/17 06:37:00;;;;;;;16.30;8.07;;;10.20;99.90;;;;;;5092004;28;20511;-65
2023/12/17 06:39:26;;;;;;;14.68;8.20;;;10.00;99.90;;;;;;5091285;27;20054;-65
2023/12/17 06:41:52;;;;;;;14.05;7.13;;;10.20;99.90;;;;;;5073598;28;20035;-65
2023/12/17 06:44:18;;;;;;;11.25;7.95;;;10.10;99.90;;;;;;5074660;27;20075;-64
2023/12/17 06:46:43;;;;;;;11.93;7.55;;;10.10;99.90;;;;;;5074194;28;20043;-65
2023/12/17 06:49:10;;;;;;;19.20;8.70;;;10.20;99.90;;;;;;5072888;28;20046;-65
2023/12/17 06:51:42;;;;;;;15.15;9.02;;;10.10;99.90;;;;;;5091191;27;20035;-65
2023/12/17 06:54:08;;;;;;;19.05;9.80;;;10.20;99.90;;;;;;5095216;28;20540;-64
2023/12/17 06:56:34;;;;;;;16.92;10.75;;;10.20;99.90;;;;;;5096755;28;20408;-65
2023/12/17 06:59:02;;;;;;;21.83;11.20;;;10.10;99.90;;;;;;5059762;28;20263;-65
2023/12/17 07:01:28;;;;;;;18.58;10.77;;;10.10;99.90;;;;;;5095861;28;20135;-65
2023/12/17 07:03:54;;;;;;;18.50;10.95;;;10.20;99.90;;;;;;5100282;28;20466;-65
2023/12/17 07:06:20;;;;;;;23.25;12.27;;;10.20;99.90;;;;;;5079086;28;20443;-65
2023/12/17 07:08:48;;;;;;;19.38;11.82;;;10.30;99.90;;;;;;5097915;28;20309;-64
2023/12/17 07:11:14;;;;;;;16.10;11.00;;;10.10;99.90;;;;;;5079005;28;20051;-64
2023/12/17 07:13:39;;;;;;;16.77;10.77;;;10.30;99.90;;;;;;5103423;27;20031;-65
2023/12/17 07:16:06;;;;;;;15.90;10.52;;;10.10;99.90;;;;;;5083889;27;20484;-64
2023/12/17 07:18:31;;;;;;;16.58;11.07;;;10.10;99.90;;;;;;5101069;27;20034;-65
2023/12/17 07:20:57;;;;;;;14.93;10.77;;;10.20;99.90;;;;;;5100864;27;20036;-64
2023/12/17 07:23:25;;;;;;;14.68;10.73;;;10.10;99.90;;;;;;5098968;27;20139;-64
2023/12/17 07:25:51;;;;;;;17.27;11.23;;;10.20;99.90;;;;;;5066130;27;20047;-64
2023/12/17 07:28:16;;;;;;;15.68;9.15;;;10.10;99.90;;;;;;5101801;27;20300;-65
2023/12/17 07:30:42;;;;;;;14.48;8.27;;;10.10;99.90;;;;;;5088991;27;20074;-64
2023/12/17 07:33:08;;;;;;;17.02;7.43;;;10.10;99.90;;;;;;5103642;27;20497;-64
2023/12/17 07:35:35;;;;;;;13.30;7.13;;;10.20;99.90;;;;;;5087210;27;20095;-64
2023/12/17 07:38:00;;;;;;;16.23;7.45;;;10.10;99.90;;;;;;5098790;27;20543;-64
2023/12/17 07:40:26;;;;;;;14.38;7.75;;;10.10;99.90;;;;;;5106963;27;20127;-64
2023/12/17 07:42:52;;;;;;;14.43;7.93;;;10.00;99.90;;;;;;5099886;27;20725;-64
2023/12/17 07:45:18;;;;;;;14.52;7.00;;;10.20;99.90;;;;;;5084655;27;20121;-64
2023/12/17 07:47:44;;;;;;;13.82;7.03;;;10.20;99.90;;;;;;5103715;27;20134;-64
2023/12/17 07:50:10;;;;;;;14.20;6.88;;;10.20;99.90;;;;;;5102593;27;20039;-64
2023/12/17 07:52:36;;;;;;;19.85;7.63;;;10.00;99.90;;;;;;5092411;27;20054;-64
2023/12/17 07:55:02;;;;;;;14.65;7.25;;;10.10;99.90;;;;;;5084371;27;20505;-64
2023/12/17 07:57:28;;;;;;;14.00;6.60;;;10.20;99.90;;;;;;5086001;27;20441;-64
2023/12/17 07:59:54;;;;;;;14.55;6.95;;;10.10;99.90;;;;;;5087776;27;20711;-64
2023/12/17 08:02:19;;;;;;;15.80;7.22;;;10.30;99.90;;;;;;5082576;27;20108;-64
2023/12/17 08:04:46;;;;;;;17.90;7.35;;;10.20;99.90;;;;;;5086134;27;20675;-67
2023/12/17 08:07:12;;;;;;;12.93;7.43;;;10.10;99.90;;;;;;5102633;27;20547;-65
2023/12/17 08:09:37;;;;;;;13.52;7.03;;;10.10;99.90;;;;;;5087559;27;20048;-65
2023/12/17 08:12:04;;;;;;;13.00;7.72;;;10.10;99.90;;;;;;5083408;27;20043;-65
2023/12/17 08:14:29;;;;;;;12.02;7.65;;;10.00;99.90;;;;;;5099433;27;20043;-65
2023/12/17 08:16:55;;;;;;;17.48;8.50;;;10.00;99.90;;;;;;5064884;27;20440;-65
2023/12/17 08:19:21;;;;;;;19.77;8.48;;;10.00;99.90;;;;;;5097529;27;20073;-65
2023/12/17 08:21:47;;;;;;;15.43;7.93;;;10.00;99.90;;;;;;5096271;27;20040;-65
2023/12/17 08:24:12;;;;;;;18.08;7.95;;;10.10;99.90;;;;;;5100442;27;20042;-65
2023/12/17 08:26:38;;;;;;;20.83;9.18;;;10.10;99.90;;;;;;5078287;27;20097;-65
2023/12/17 08:29:04;;;;;;;19.95;8.07;;;10.00;99.90;;;;;;5096512;27;20040;-64
2023/12/17 08:31:29;;;;;;;18.90;9.07;;;10.10;99.90;;;;;;5081420;27;20458;-64
2023/12/17 08:33:55;;;;;;;17.25;8.70;;;10.20;99.90;;;;;;5095958;27;20035;-65
2023/12/17 08:36:24;;;;;;;15.07;8.77;;;10.00;99.90;;;;;;5086720;27;20463;-65
2023/12/17 08:38:49;;;;;;;16.02;9.13;;;10.00;99.90;;;;;;5100103;27;20308;-65
2023/12/17 08:41:15;;;;;;;20.55;9.38;;;10.10;99.90;;;;;;5096194;27;20043;-64
2023/12/17 08:43:41;;;;;;;17.63;8.68;;;10.20;99.90;;;;;;5093888;27;20047;-65
2023/12/17 08:46:06;;;;;;;21.52;9.32;;;10.00;99.90;;;;;;5094006;27;20570;-65
2023/12/17 08:48:32;;;;;;;19.55;9.50;;;10.20;99.90;;;;;;5076015;28;20517;-64
2023/12/17 08:50:58;;;;;;;18.23;8.40;;;10.20;99.90;;;;;;5081646;28;20070;-65
2023/12/17 08:53:26;;;;;;;20.15;10.10;;;10.10;99.90;;;;;;5092423;27;20390;-66
2023/12/17 08:55:52;;;;;;;15.05;8.88;;;10.10;99.90;;;;;;5092957;28;20091;-64
2023/12/17 08:58:18;;;;;;;18.27;9.93;;;10.20;99.90;;;;;;5092212;28;20036;-65
2023/12/17 09:00:44;;;;;;;16.33;8.90;;;10.20;99.90;;;;;;5075625;28;20575;-64
2023/12/17 09:03:09;;;;;;;16.95;8.70;;;10.10;99.90;;;;;;5074895;28;20130;-65
2023/12/17 09:05:35;;;;;;;17.73;9.82;;;10.20;99.90;;;;;;5092104;28;20046;-65
2023/12/17 09:08:02;;;;;;;19.00;10.18;;;10.10;99.90;;;;;;5074319;28;20247;-65
2023/12/17 09:10:28;;;;;;;19.30;10.00;;;10.10;99.90;;;;;;5087508;27;20036;-65
2023/12/17 09:12:57;;;;;;;17.27;9.82;;;10.30;99.90;;;;;;5074434;27;20065;-65
2023/12/17 09:15:23;;;;;;;16.35;10.50;;;10.20;99.90;;;;;;5092332;27;20557;-65
2023/12/17 09:17:50;;;;;;;17.95;10.60;;;10.30;99.90;;;;;;5092295;27;20079;-65
2023/12/17 09:20:16;;;;;;;18.67;11.25;;;10.20;99.90;;;;;;5073090;28;20039;-65
2023/12/17 09:22:42;;;;;;;16.77;10.68;;;10.30;99.90;;;;;;5092449;27;20047;-65
2023/12/17 09:25:08;;;;;;;19.00;10.75;;;10.30;99.90;;;;;;5091903;27;20050;-65
2023/12/17 09:27:34;;;;;;;15.55;11.13;;;10.40;99.90;;;;;;5091121;27;20291;-65
2023/12/17 09:29:59;;;;;;;19.80;12.13;;;10.30;99.90;;;;;;5091099;27;20498;-65
2023/12/17 09:32:26;;;;;;;18.80;11.85;;;10.50;99.90;;;;;;5090715;27;20611;-65
2023/12/17 09:34:52;;;;;;;17.13;11.60;;;10.50;99.90;;;;;;5091125;27;20213;-66
2023/12/17 09:37:18;;;;;;;19.10;12.82;;;10.40;99.90;;;;;;5090762;27;20064;-66
2023/12/17 09:39:43;;;;;;;23.60;13.50;;;10.40;99.90;;;;;;5074560;28;20047;-65
2023/12/17 09:42:09;;;;;;;20.95;13.55;;;10.40;99.90;;;;;;5091149;27;20031;-65
2023/12/17 09:44:35;;;;;;;18.92;14.02;;;10.40;99.90;;;;;;5072954;28;20529;-65
2023/12/17 09:47:00;;;;;;;21.65;14.88;;;10.50;99.90;;;;;;5092373;27;20051;-65
2023/12/17 09:49:26;;;;;;;22.05;15.50;;;10.30;99.90;;;;;;5075036;28;20443;-65
2023/12/17 09:52:01;;;;;;;22.20;14.70;;;10.50;99.90;;;;;;5091000;27;20120;-65
2023/12/17 09:54:27;;;;;;;30.38;16.55;;;10.50;99.90;;;;;;5076087;28;20134;-65
2023/12/17 09:56:57;;;;;;;30.05;15.50;;;10.40;99.90;;;;;;5100225;27;20139;-64
2023/12/17 09:59:23;;;;;;;29.27;18.73;;;10.40;99.90;;;;;;5097588;27;20156;-64
2023/12/17 10:01:48;;;;;;;33.55;19.38;;;10.40;99.90;;;;;;5081032;27;20122;-64
2023/12/17 10:04:14;;;;;;;23.13;15.50;;;10.50;99.90;;;;;;5097887;27;20093;-65
2023/12/17 10:06:40;;;;;;;28.48;17.52;;;10.50;99.90;;;;;;5101404;27;20043;-64
2023/12/17 10:09:08;;;;;;;30.52;17.48;;;10.60;99.90;;;;;;5099143;27;20063;-64
2023/12/17 10:11:33;;;;;;;30.08;18.42;;;10.60;99.90;;;;;;5092455;27;20050;-64
2023/12/17 10:14:00;;;;;;;30.70;17.27;;;10.70;99.90;;;;;;5098864;27;20032;-64
2023/12/17 10:16:26;;;;;;;28.45;16.08;;;10.50;99.90;;;;;;5079726;27;20043;-65
2023/12/17 10:18:52;;;;;;;25.27;14.82;;;10.60;99.90;;;;;;5082584;27;20069;-64
2023/12/17 10:21:18;;;;;;;29.05;15.10;;;10.60;99.90;;;;;;5093908;27;20146;-64
2023/12/17 10:23:48;;;;;;;21.83;11.70;;;10.60;99.90;;;;;;5103905;27;20031;-64
2023/12/17 10:26:14;;;;;;;28.80;14.35;;;10.70;99.90;;;;;;5097598;27;20505;-65
2023/12/17 10:28:47;;;;;;;19.27;9.10;;;10.80;99.90;;;;;;5095623;27;20123;-65
2023/12/17 10:31:16;;;;;;;25.20;12.27;;;10.80;99.90;;;;;;5091992;27;20521;-64
2023/12/17 10:34:07;;;;;;;21.50;11.38;;;10.80;99.90;;;;;;5096143;27;20043;-64
2023/12/17 10:36:33;;;;;;;20.90;10.43;;;10.90;99.90;;;;;;5095724;27;21282;-64
2023/12/17 10:39:00;;;;;;;21.88;10.52;;;10.80;99.90;;;;;;5080999;27;20240;-65
2023/12/17 10:41:27;;;;;;;25.33;12.07;;;10.70;99.90;;;;;;5091101;28;20298;-64
2023/12/17 10:43:54;;;;;;;22.75;12.50;;;10.80;99.90;;;;;;5085779;27;20047;-64
2023/12/17 10:46:20;;;;;;;25.30;13.10;;;10.70;99.90;;;;;;5100033;27;20047;-64
2023/12/17 10:48:46;;;;;;;24.60;12.30;;;10.80;99.90;;;;;;5073297;28;20071;-64
2023/12/17 10:51:14;;;;;;;23.38;12.65;;;10.70;99.90;;;;;;5095066;27;20329;-65
2023/12/17 10:53:39;;;;;;;19.15;10.40;;;10.70;99.90;;;;;;5105065;27;20346;-64
2023/12/17 10:56:06;;;;;;;15.27;10.13;;;10.70;99.90;;;;;;5103043;28;20042;-65
2023/12/17 10:58:33;;;;;;;20.80;9.48;;;10.80;99.90;;;;;;5106209;28;20671;-66
2023/12/17 11:00:58;;;;;;;26.40;13.63;;;10.80;99.90;;;;;;5106037;28;20043;-65
2023/12/17 11:03:25;;;;;;;30.48;13.43;;;10.70;99.90;;;;;;5075349;28;20105;-64
2023/12/17 11:05:56;;;;;;;24.52;12.80;;;10.80;99.90;;;;;;5092312;28;20563;-65
2023/12/17 11:08:28;;;;;;;24.58;11.85;;;10.80;99.90;;;;;;5091623;28;20039;-64
2023/12/17 11:10:55;;;;;;;24.33;13.43;;;10.70;99.90;;;;;;5081130;28;20108;-64
2023/12/17 11:13:24;;;;;;;27.67;15.57;;;10.80;99.90;;;;;;5092431;28;20301;-64
2023/12/17 11:15:51;;;;;;;30.58;17.05;;;10.80;99.90;;;;;;5091472;28;20379;-65
2023/12/17 11:18:17;;;;;;;26.25;18.83;;;10.70;99.90;;;;;;5077615;28;20039;-65
2023/12/17 11:20:46;;;;;;;30.75;19.00;;;10.80;99.90;;;;;;5101367;28;20123;-65
2023/12/17 11:23:16;;;;;;;32.95;22.02;;;10.80;99.90;;;;;;5098881;28;20036;-65
2023/12/17 11:25:42;;;;;;;31.58;22.67;;;10.90;99.90;;;;;;5097366;28;20112;-65
2023/12/17 11:28:12;;;;;;;30.80;21.67;;;10.70;99.90;;;;;;5079108;28;20118;-65
2023/12/17 11:30:38;;;;;;;34.15;25.73;;;10.80;99.90;;;;;;5090495;28;20039;-65
2023/12/17 11:33:03;;;;;;;38.65;25.05;;;10.90;99.90;;;;;;5099093;28;20285;-65
2023/12/17 11:35:32;;;;;;;35.47;22.90;;;10.70;99.90;;;;;;5088237;28;20039;-65
2023/12/17 11:37:58;;;;;;;30.35;23.75;;;10.80;99.90;;;;;;5098449;28;20268;-65
2023/12/17 11:40:24;;;;;;;31.70;21.52;;;10.80;99.90;;;;;;5109060;28;20047;-64
2023/12/17 11:43:00;;;;;;;30.67;21.77;;;10.90;99.90;;;;;;5100423;28;20224;-64
2023/12/17 11:45:47;;;;;;;30.35;20.30;;;11.00;99.90;;;;;;5093563;28;20161;-64
2023/12/17 11:48:15;;;;;;;25.20;17.08;;;11.00;99.90;;;;;;5094572;28;20127;-65
2023/12/17 11:50:48;;;;;;;24.98;18.77;;;11.20;99.90;;;;;;5100694;28;20434;-64
2023/12/17 11:53:19;;;;;;;28.92;21.40;;;11.30;99.90;;;;;;5092170;28;20964;-65
2023/12/17 11:55:47;;;;;;;30.23;20.45;;;11.50;99.90;;;;;;5089168;28;20402;-66
2023/12/17 11:58:19;;;;;;;28.58;20.15;;;11.60;99.90;;;;;;5090043;28;20123;-65
2023/12/17 12:01:08;;;;;;;27.80;20.83;;;11.70;99.90;;;;;;5107597;27;20047;-65
2023/12/17 12:03:34;;;;;;;31.05;22.85;;;11.80;99.90;;;;;;5092442;28;20124;-65
2023/12/17 12:06:10;;;;;;;25.52;19.17;;;12.10;99.90;;;;;;5093256;28;20878;-65
2023/12/17 12:08:42;;;;;;;23.45;17.77;;;12.20;99.90;;;;;;5076048;28;20047;-65
2023/12/17 12:11:11;;;;;;;19.95;14.25;;;12.20;99.90;;;;;;5092827;28;20047;-65
2023/12/17 12:13:43;;;;;;;20.83;15.60;;;12.50;99.90;;;;;;5092455;28;20036;-65
2023/12/17 12:16:09;;;;;;;19.02;15.50;;;12.40;99.90;;;;;;5077071;28;20672;-66
2023/12/17 12:18:35;;;;;;;19.85;13.80;;;12.40;99.90;;;;;;5076169;28;20039;-65
2023/12/17 12:21:29;;;;;;;15.00;11.02;;;12.40;99.90;;;;;;5075920;28;20028;-64
2023/12/17 12:23:56;;;;;;;18.45;13.98;;;12.40;99.90;;;;;;5093832;28;20047;-65
2023/12/17 12:26:23;;;;;;;20.20;14.70;;;12.40;99.90;;;;;;5076142;28;20059;-65
2023/12/17 12:29:00;;;;;;;21.60;14.63;;;12.20;99.90;;;;;;5076090;28;20051;-65
2023/12/17 12:31:27;;;;;;;19.67;13.70;;;12.00;99.90;;;;;;5093041;28;20757;-66